Map

Track Data

SID SEASON NUMBER BASIN SUBBASIN NAME ISO_TIME NATURE LAT LON WMO_WIND WMO_PRES WMO_AGENCY TRACK_TYPE DIST2LAND LANDFALL IFLAG USA_AGENCY USA_ATCF_ID USA_LAT USA_LON USA_RECORD USA_STATUS USA_WIND USA_PRES USA_SSHS USA_R34_NE USA_R34_SE USA_R34_SW USA_R34_NW USA_R50_NE USA_R50_SE USA_R50_SW USA_R50_NW USA_R64_NE USA_R64_SE USA_R64_SW USA_R64_NW USA_POCI USA_ROCI USA_RMW USA_EYE TOKYO_LAT TOKYO_LON TOKYO_GRADE TOKYO_WIND TOKYO_PRES TOKYO_R50_DIR TOKYO_R50_LONG TOKYO_R50_SHORT TOKYO_R30_DIR TOKYO_R30_LONG TOKYO_R30_SHORT TOKYO_LAND CMA_LAT CMA_LON CMA_CAT CMA_WIND CMA_PRES HKO_LAT HKO_LON HKO_CAT HKO_WIND HKO_PRES NEWDELHI_LAT NEWDELHI_LON NEWDELHI_GRADE NEWDELHI_WIND NEWDELHI_PRES NEWDELHI_CI NEWDELHI_DP NEWDELHI_POCI REUNION_LAT REUNION_LON REUNION_TYPE REUNION_WIND REUNION_PRES REUNION_TNUM REUNION_CI REUNION_RMW REUNION_R34_NE REUNION_R34_SE REUNION_R34_SW REUNION_R34_NW REUNION_R50_NE REUNION_R50_SE REUNION_R50_SW REUNION_R50_NW REUNION_R64_NE REUNION_R64_SE REUNION_R64_SW REUNION_R64_NW BOM_LAT BOM_LON BOM_TYPE BOM_WIND BOM_PRES BOM_TNUM BOM_CI BOM_RMW BOM_R34_NE BOM_R34_SE BOM_R34_SW BOM_R34_NW BOM_R50_NE BOM_R50_SE BOM_R50_SW BOM_R50_NW BOM_R64_NE BOM_R64_SE BOM_R64_SW BOM_R64_NW BOM_ROCI BOM_POCI BOM_EYE BOM_POS_METHOD BOM_PRES_METHOD NADI_LAT NADI_LON NADI_CAT NADI_WIND NADI_PRES WELLINGTON_LAT WELLINGTON_LON WELLINGTON_WIND WELLINGTON_PRES DS824_LAT DS824_LON DS824_STAGE DS824_WIND DS824_PRES TD9636_LAT TD9636_LON TD9636_STAGE TD9636_WIND TD9636_PRES TD9635_LAT TD9635_LON TD9635_WIND TD9635_PRES TD9635_ROCI NEUMANN_LAT NEUMANN_LON NEUMANN_CLASS NEUMANN_WIND NEUMANN_PRES MLC_LAT MLC_LON MLC_CLASS MLC_WIND MLC_PRES USA_GUST BOM_GUST BOM_GUST_PER REUNION_GUST REUNION_GUST_PER USA_SEAHGT USA_SEARAD_NE USA_SEARAD_SE USA_SEARAD_SW USA_SEARAD_NW STORM_SPEED STORM_DIR
1974157N18112 1974 43 WP MM NOT_NAMED 1974-06-05 18:00:00 TS 18.0000 111.800 main 163 155 __O___________ -1 18.0000 111.800 1 29 1001 1 0
1974157N18112 1974 43 WP MM NOT_NAMED 1974-06-05 21:00:00 TS 18.0275 111.815 main 163 163 __P___________ -1 18.0275 111.815 1 29 1000 12 61
1974157N18112 1974 43 WP MM NOT_NAMED 1974-06-06 00:00:00 TS 18.5571 112.871 main 228 228 O_O______OOO__ jtwc_wp WP051974 18.9000 113.600 20 -1 18.1000 111.900 1 29 1000 18.9000 113.600 TC 20 18.9000 113.600 1 20 18.9000 113.600 20 1000 300 14 60
1974157N18112 1974 43 WP MM NOT_NAMED 1974-06-06 03:00:00 TS 18.7123 113.063 main 242 237 P_P______PPP__ WP051974 18.9425 113.550 20 -1 18.2426 112.092 1 29 1000 18.9425 113.550 TC 20 18.9610 113.544 1 20 18.9425 113.550 20 1000 300 4 51
1974157N18112 1974 43 WP MM NOT_NAMED 1974-06-06 06:00:00 TS 18.8166 113.210 main 247 243 O_OO_____OPO__ jtwc_wp WP051974 19.0000 113.500 20 -1 18.4000 112.300 1 29 1000 18.2000 113.400 TD 25 1000 19.0000 113.500 TC 20 19.0275 113.490 1 20 19.0000 113.500 20 1000 300 3 41
1974157N18112 1974 43 WP MM NOT_NAMED 1974-06-06 09:00:00 TS 18.9246 113.255 main 253 240 P_PP_____PPP__ WP051974 19.0850 113.450 20 -1 18.4924 112.408 1 29 1000 18.4650 113.410 TD 25 1000 19.0850 113.450 TC 20 19.1053 113.441 1 20 19.0850 113.450 20 1000 270 2 9
1974157N18112 1974 43 WP MM NOT_NAMED 1974-06-06 12:00:00 TS 19.0304 113.243 main 240 235 O_OO_____OOO__ jtwc_wp WP051974 19.2000 113.400 20 -1 18.6000 112.500 1 29 1000 18.7000 113.400 TD 25 1000 19.2000 113.400 TC 20 19.2000 113.400 1 20 19.2000 113.400 20 1000 240 2 0
1974157N18112 1974 43 WP MM NOT_NAMED 1974-06-06 15:00:00 TS 19.1690 113.237 main 235 233 P_PP_____PPP__ WP051974 19.3425 113.350 22 -1 18.7775 112.650 1 29 999 18.8925 113.358 TD 25 1000 19.3425 113.350 TC 22 19.3162 113.366 1 21 19.3425 113.350 22 1000 240 3 0
1974157N18112 1974 43 WP MM NOT_NAMED 1974-06-06 18:00:00 TS 19.3425 113.222 main 233 230 O_OO_____OPO__ jtwc_wp WP051974 19.5000 113.300 25 -1 19.0000 112.800 1 29 998 19.1000 113.300 TD 25 1000 19.5000 113.300 TC 25 19.4549 113.330 1 22 19.5000 113.300 25 1000 240 4 356
1974157N18112 1974 43 WP MM NOT_NAMED 1974-06-06 21:00:00 TS 19.5285 113.209 main 230 230 P_PP_____PPP__ WP051974 19.6350 113.265 25 -1 19.2500 112.922 1 33 995 19.4000 113.257 TD 25 1000 19.6350 113.265 TC 25 19.6162 113.279 1 23 19.6350 113.265 25 1000 240 4 351
1974157N18112 1974 43 WP MM NOT_NAMED 1974-06-07 00:00:00 TS 19.7333 113.167 main 230 217 O_OO_____OOO__ jtwc_wp WP051974 19.8000 113.200 25 -1 19.5000 113.000 2 38 992 19.7000 113.200 TD 25 1000 19.8000 113.200 TC 25 19.8000 113.200 1 25 19.8000 113.200 25 1000 240 5 343
1974157N18112 1974 43 WP MM NOT_NAMED 1974-06-07 03:00:00 TS 19.9564 113.069 main 207 178 P_PP_____PPP__ WP051974 20.0425 113.065 27 -1 19.7000 113.023 2 38 992 19.9075 113.107 TD 25 1000 20.0425 113.065 TC 27 20.0034 113.091 1 26 20.0425 113.065 27 1000 240 5 335
1974157N18112 1974 43 WP MM NOT_NAMED 1974-06-07 06:00:00 TS 20.1879 112.942 main 178 154 O_OO_____OPO__ jtwc_wp WP051974 20.3000 112.900 30 -1 19.9000 113.000 2 38 992 20.1000 113.000 TD 25 1000 20.3000 112.900 TC 30 20.2274 112.952 1 27 20.3000 112.900 30 1000 240 5 333
1974157N18112 1974 43 WP MM NOT_NAMED 1974-06-07 09:00:00 TS 20.4092 112.825 main 154 129 P_PP_____PPP__ WP051974 20.5000 112.757 30 -1 20.1500 112.972 2 43 991 20.3425 112.915 TD 25 1000 20.5000 112.757 TC 30 20.4627 112.788 1 28 20.5000 112.757 30 1000 240 5 331
1974157N18112 1974 43 WP MM NOT_NAMED 1974-06-07 12:00:00 TS 20.6333 112.683 main 129 91 O_OO_____OOO__ jtwc_wp WP051974 20.7000 112.600 30 -1 20.4000 112.900 3 48 990 20.6000 112.800 TD 25 1000 20.7000 112.600 TC 30 20.7000 112.600 1 30 20.7000 112.600 30 1000 240 6 327
1974157N18112 1974 43 WP MM NOT_NAMED 1974-06-07 15:00:00 TS 20.8719 112.508 main 91 67 P_PP_____PPP__ WP051974 20.9500 112.415 30 -1 20.6074 112.795 3 48 990 20.8425 112.615 TD 25 999 20.9500 112.415 TC 30 20.9317 112.393 1 30 20.9500 112.415 30 1000 240 6 323
1974157N18112 1974 43 WP MM NOT_NAMED 1974-06-07 18:00:00 TS 21.1079 112.296 main 67 45 O_OO_____OPO__ jtwc_wp WP051974 21.2000 112.200 30 -1 20.8000 112.600 3 48 990 21.1000 112.400 TD 25 998 21.2000 112.200 TC 30 21.1578 112.171 1 30 21.2000 112.200 30 1000 240 6 316
1974157N18112 1974 43 WP MM NOT_NAMED 1974-06-07 21:00:00 TS 21.3140 112.048 main 39 11 P_PP_____PPP__ WP051974 21.4075 111.965 30 -1 20.9626 112.280 3 43 991 21.3900 112.195 TD 25 998 21.4075 111.965 TC 30 21.3800 111.938 1 30 21.4075 111.965 30 1000 210 6 310
1974157N18112 1974 43 WP MM NOT_NAMED 1974-06-08 00:00:00 TS 21.5214 111.764 main 11 0 O_OO_____OOO__ jtwc_wp WP051974 21.6000 111.700 30 -1 21.2000 111.900 2 38 992 21.7000 112.000 TD 25 998 21.6000 111.700 TC 30 21.6000 111.700 1 30 21.6000 111.700 30 1000 180 7 308
1974157N18112 1974 43 WP MM NOT_NAMED 1974-06-08 03:00:00 TS 21.7482 111.441 main 0 0 P_P______P_P__ WP051974 21.7976 111.408 25 -1 21.6001 111.541 2 33 993 TD 21.7976 111.408 TC 25 1 21.7976 111.408 25 40 8 310
1974157N18112 1974 43 WP MM NOT_NAMED 1974-06-08 06:00:00 TS 22.0250 111.125 main 0 O_O______O_O__ jtwc_wp WP051974 22.0000 111.100 20 -1 22.1000 111.200 1 29 995 22.0000 111.100 TC 20 1 22.0000 111.100 20 -99 8 313

Digital Typhoon Data and Search

About IBTrACS Database

This database is a web-friendly format of International Best Track Archive for Climate Stewardship (IBTrACS), a global best track data archive curated by NOAA dating back to 1842.

Updated: 2021-10-21